LFLS/GNB METAR and TAF weather

Enter ICAO airport designator
Station Type Date Time Source
LFLS METAR 2018/12/18 19:00 UTC NOAA

LFLS 181900Z AUTO 23013KT CAVOK 08/M00 Q1020 NOSIG


Station Type Date Time Source
LFLS Decoded METAR 2018/12/18 19:00 UTC NOAA

Grenoble / St. Geoirs, France (LFLS) 45-22N 005-20E 386M
Dec 18, 2018 - 02:00 PM EST / 2018.12.18 1900 UTC
Wind: from the SW (230 degrees) at 15 MPH (13 KT):0
Visibility: greater than 7 mile(s):0
Temperature: 46 F (8 C)
Dew Point: 32 F (0 C)
Relative Humidity: 56%
Pressure (altimeter): 30.12 in. Hg (1020 hPa)
ob: LFLS 181900Z AUTO 23013KT CAVOK 08/M00 Q1020 NOSIG
cycle: 19

Station Type Date Time Source
LFLS TAF 2018/12/18 15:26 UTC NOAA

TAF LFLS 181400Z 1815/1915 18005KT CAVOK
BECMG 1900/1902 09003KT
BECMG 1902/1904 OVC050
TEMPO 1904/1915 8000 -RA OVC040 PROB40
TEMPO 1910/1912 6000 RA SCT025 OVC035


Example: see airport list